sensor_id;sensor_type;location;lat;lon;timestamp;temperature;humidity
63383;DHT22;49512;48.744;9.176;2023-04-25T00:02:11;16.20;99.90
63383;DHT22;49512;48.744;9.176;2023-04-25T00:04:36;16.20;99.90
63383;DHT22;49512;48.744;9.176;2023-04-25T00:07:03;16.20;99.90
63383;DHT22;49512;48.744;9.176;2023-04-25T00:09:29;16.20;99.90
63383;DHT22;49512;48.744;9.176;2023-04-25T00:11:55;16.10;99.90
63383;DHT22;49512;48.744;9.176;2023-04-25T00:14:20;16.20;99.90
63383;DHT22;49512;48.744;9.176;2023-04-25T00:16:45;16.10;99.90
63383;DHT22;49512;48.744;9.176;2023-04-25T00:19:11;16.10;99.90
63383;DHT22;49512;48.744;9.176;2023-04-25T00:21:38;16.10;99.90
63383;DHT22;49512;48.744;9.176;2023-04-25T00:24:06;16.20;99.90
63383;DHT22;49512;48.744;9.176;2023-04-25T00:26:31;16.10;99.90
63383;DHT22;49512;48.744;9.176;2023-04-25T00:28:57;16.10;99.90
63383;DHT22;49512;48.744;9.176;2023-04-25T00:31:22;16.10;99.90
63383;DHT22;49512;48.744;9.176;2023-04-25T00:33:48;16.20;99.90
63383;DHT22;49512;48.744;9.176;2023-04-25T00:36:13;16.10;99.90
63383;DHT22;49512;48.744;9.176;2023-04-25T00:38:39;16.10;99.90
63383;DHT22;49512;48.744;9.176;2023-04-25T00:41:08;16.10;99.90
63383;DHT22;49512;48.744;9.176;2023-04-25T00:43:33;16.10;99.90
63383;DHT22;49512;48.744;9.176;2023-04-25T00:46:00;16.10;99.90
63383;DHT22;49512;48.744;9.176;2023-04-25T00:48:25;16.10;99.90
63383;DHT22;49512;48.744;9.176;2023-04-25T00:50:52;16.10;99.90
63383;DHT22;49512;48.744;9.176;2023-04-25T00:53:18;16.10;99.90
63383;DHT22;49512;48.744;9.176;2023-04-25T00:55:44;16.10;99.90
63383;DHT22;49512;48.744;9.176;2023-04-25T00:58:10;16.00;99.90
63383;DHT22;49512;48.744;9.176;2023-04-25T01:00:36;16.10;99.90
63383;DHT22;49512;48.744;9.176;2023-04-25T01:03:01;16.10;99.90
63383;DHT22;49512;48.744;9.176;2023-04-25T01:05:29;16.10;99.90
63383;DHT22;49512;48.744;9.176;2023-04-25T01:07:54;16.10;99.90
63383;DHT22;49512;48.744;9.176;2023-04-25T01:10:20;16.10;99.90
63383;DHT22;49512;48.744;9.176;2023-04-25T01:12:45;16.00;99.90
63383;DHT22;49512;48.744;9.176;2023-04-25T01:15:11;16.10;99.90
63383;DHT22;49512;48.744;9.176;2023-04-25T01:17:36;16.00;99.90
63383;DHT22;49512;48.744;9.176;2023-04-25T01:20:03;16.00;99.90
63383;DHT22;49512;48.744;9.176;2023-04-25T01:22:29;16.10;99.90
63383;DHT22;49512;48.744;9.176;2023-04-25T01:24:55;16.10;99.90
63383;DHT22;49512;48.744;9.176;2023-04-25T01:27:21;16.10;99.90
63383;DHT22;49512;48.744;9.176;2023-04-25T01:29:48;16.00;99.90
63383;DHT22;49512;48.744;9.176;2023-04-25T01:32:14;16.00;99.90
63383;DHT22;49512;48.744;9.176;2023-04-25T01:34:40;16.10;99.90
63383;DHT22;49512;48.744;9.176;2023-04-25T01:37:05;16.00;99.90
63383;DHT22;49512;48.744;9.176;2023-04-25T01:39:31;16.00;99.90
63383;DHT22;49512;48.744;9.176;2023-04-25T01:41:57;16.00;99.90
63383;DHT22;49512;48.744;9.176;2023-04-25T01:44:23;16.00;99.90
63383;DHT22;49512;48.744;9.176;2023-04-25T01:46:48;16.00;99.90
63383;DHT22;49512;48.744;9.176;2023-04-25T01:49:14;16.00;99.90
63383;DHT22;49512;48.744;9.176;2023-04-25T01:51:39;16.00;99.90
63383;DHT22;49512;48.744;9.176;2023-04-25T01:54:05;16.00;99.90
63383;DHT22;49512;48.744;9.176;2023-04-25T01:56:31;16.00;99.90
63383;DHT22;49512;48.744;9.176;2023-04-25T01:58:57;16.00;99.90
63383;DHT22;49512;48.744;9.176;2023-04-25T02:01:23;16.00;99.90
63383;DHT22;49512;48.744;9.176;2023-04-25T02:03:48;16.00;99.90
63383;DHT22;49512;48.744;9.176;2023-04-25T02:06:13;16.00;99.90
63383;DHT22;49512;48.744;9.176;2023-04-25T02:08:39;16.00;99.90
63383;DHT22;49512;48.744;9.176;2023-04-25T02:11:04;16.00;99.90
63383;DHT22;49512;48.744;9.176;2023-04-25T02:13:30;16.00;99.90
63383;DHT22;49512;48.744;9.176;2023-04-25T02:15:56;16.00;99.90
63383;DHT22;49512;48.744;9.176;2023-04-25T02:18:21;16.00;99.90
63383;DHT22;49512;48.744;9.176;2023-04-25T02:20:47;16.00;99.90
63383;DHT22;49512;48.744;9.176;2023-04-25T02:23:12;16.00;99.90
63383;DHT22;49512;48.744;9.176;2023-04-25T02:25:38;16.40;99.90
63383;DHT22;49512;48.744;9.176;2023-04-25T02:28:04;15.90;99.90
63383;DHT22;49512;48.744;9.176;2023-04-25T02:30:29;16.00;99.90
63383;DHT22;49512;48.744;9.176;2023-04-25T02:32:56;16.00;99.90
63383;DHT22;49512;48.744;9.176;2023-04-25T02:35:21;15.90;99.90
63383;DHT22;49512;48.744;9.176;2023-04-25T02:37:47;15.90;99.90
63383;DHT22;49512;48.744;9.176;2023-04-25T02:40:12;15.90;99.90
63383;DHT22;49512;48.744;9.176;2023-04-25T02:42:38;15.90;99.90
63383;DHT22;49512;48.744;9.176;2023-04-25T02:45:03;16.00;99.90
63383;DHT22;49512;48.744;9.176;2023-04-25T02:47:29;15.90;99.90
63383;DHT22;49512;48.744;9.176;2023-04-25T02:49:55;16.00;99.90
63383;DHT22;49512;48.744;9.176;2023-04-25T02:52:20;16.00;99.90
63383;DHT22;49512;48.744;9.176;2023-04-25T02:54:46;15.90;99.90
63383;DHT22;49512;48.744;9.176;2023-04-25T02:57:12;15.80;99.90
63383;DHT22;49512;48.744;9.176;2023-04-25T02:59:37;15.90;99.90
63383;DHT22;49512;48.744;9.176;2023-04-25T03:02:03;15.90;99.90
63383;DHT22;49512;48.744;9.176;2023-04-25T03:04:28;15.90;99.90
63383;DHT22;49512;48.744;9.176;2023-04-25T03:06:54;15.90;99.90
63383;DHT22;49512;48.744;9.176;2023-04-25T03:09:19;15.90;99.90
63383;DHT22;49512;48.744;9.176;2023-04-25T03:11:45;15.90;99.90
63383;DHT22;49512;48.744;9.176;2023-04-25T03:14:11;15.90;99.90
63383;DHT22;49512;48.744;9.176;2023-04-25T03:17:02;15.90;99.90
63383;DHT22;49512;48.744;9.176;2023-04-25T03:19:50;15.90;99.90
63383;DHT22;49512;48.744;9.176;2023-04-25T03:22:19;15.90;99.90
63383;DHT22;49512;48.744;9.176;2023-04-25T03:24:44;15.90;99.90
63383;DHT22;49512;48.744;9.176;2023-04-25T03:27:13;15.90;99.90
63383;DHT22;49512;48.744;9.176;2023-04-25T03:29:52;15.90;99.90
63383;DHT22;49512;48.744;9.176;2023-04-25T03:32:17;15.90;99.90
63383;DHT22;49512;48.744;9.176;2023-04-25T03:34:46;15.90;99.90
63383;DHT22;49512;48.744;9.176;2023-04-25T03:37:11;15.90;99.90
63383;DHT22;49512;48.744;9.176;2023-04-25T03:39:37;15.80;99.90
63383;DHT22;49512;48.744;9.176;2023-04-25T03:42:03;15.90;99.90
63383;DHT22;49512;48.744;9.176;2023-04-25T03:44:29;15.90;99.90
63383;DHT22;49512;48.744;9.176;2023-04-25T03:46:54;15.80;99.90
63383;DHT22;49512;48.744;9.176;2023-04-25T03:49:20;15.80;99.90
63383;DHT22;49512;48.744;9.176;2023-04-25T03:51:45;15.90;99.90
63383;DHT22;49512;48.744;9.176;2023-04-25T03:54:11;15.90;99.90
63383;DHT22;49512;48.744;9.176;2023-04-25T03:56:36;15.90;99.90
63383;DHT22;49512;48.744;9.176;2023-04-25T03:59:02;15.80;99.90
63383;DHT22;49512;48.744;9.176;2023-04-25T04:01:27;15.80;99.90
63383;DHT22;49512;48.744;9.176;2023-04-25T04:03:53;15.80;99.90
63383;DHT22;49512;48.744;9.176;2023-04-25T04:06:18;15.80;99.90
63383;DHT22;49512;48.744;9.176;2023-04-25T04:08:46;15.80;99.90
63383;DHT22;49512;48.744;9.176;2023-04-25T04:11:11;15.80;99.90
63383;DHT22;49512;48.744;9.176;2023-04-25T04:13:37;15.90;99.90
63383;DHT22;49512;48.744;9.176;2023-04-25T04:16:02;15.80;99.90
63383;DHT22;49512;48.744;9.176;2023-04-25T04:18:29;15.80;99.90
63383;DHT22;49512;48.744;9.176;2023-04-25T04:20:55;15.80;99.90
63383;DHT22;49512;48.744;9.176;2023-04-25T04:23:21;15.80;99.90
63383;DHT22;49512;48.744;9.176;2023-04-25T04:25:47;15.80;99.90
63383;DHT22;49512;48.744;9.176;2023-04-25T04:28:13;15.80;99.90
63383;DHT22;49512;48.744;9.176;2023-04-25T04:30:38;15.80;99.90
63383;DHT22;49512;48.744;9.176;2023-04-25T04:33:04;15.80;99.90
63383;DHT22;49512;48.744;9.176;2023-04-25T04:35:30;15.80;99.90
63383;DHT22;49512;48.744;9.176;2023-04-25T04:37:55;15.80;99.90
63383;DHT22;49512;48.744;9.176;2023-04-25T04:40:21;15.80;99.90
63383;DHT22;49512;48.744;9.176;2023-04-25T04:42:47;15.90;99.90
63383;DHT22;49512;48.744;9.176;2023-04-25T04:45:13;15.90;99.90
63383;DHT22;49512;48.744;9.176;2023-04-25T04:47:38;15.90;99.90
63383;DHT22;49512;48.744;9.176;2023-04-25T04:50:08;15.90;99.90
63383;DHT22;49512;48.744;9.176;2023-04-25T04:52:34;15.90;99.90
63383;DHT22;49512;48.744;9.176;2023-04-25T04:55:00;15.80;99.90
63383;DHT22;49512;48.744;9.176;2023-04-25T04:57:26;15.90;99.90
63383;DHT22;49512;48.744;9.176;2023-04-25T04:59:52;15.80;99.90
63383;DHT22;49512;48.744;9.176;2023-04-25T05:02:17;15.80;99.90
63383;DHT22;49512;48.744;9.176;2023-04-25T05:04:43;15.80;99.90
63383;DHT22;49512;48.744;9.176;2023-04-25T05:09:35;15.80;99.90
63383;DHT22;49512;48.744;9.176;2023-04-25T05:12:00;15.80;99.90
63383;DHT22;49512;48.744;9.176;2023-04-25T05:14:26;15.90;99.90
63383;DHT22;49512;48.744;9.176;2023-04-25T05:16:51;15.80;99.90
63383;DHT22;49512;48.744;9.176;2023-04-25T05:19:17;15.80;99.90
63383;DHT22;49512;48.744;9.176;2023-04-25T05:21:42;15.80;99.90
63383;DHT22;49512;48.744;9.176;2023-04-25T05:24:08;15.90;99.90
63383;DHT22;49512;48.744;9.176;2023-04-25T05:26:34;15.80;99.90
63383;DHT22;49512;48.744;9.176;2023-04-25T05:28:59;15.80;99.90
63383;DHT22;49512;48.744;9.176;2023-04-25T05:31:25;15.80;99.90
63383;DHT22;49512;48.744;9.176;2023-04-25T05:33:51;15.70;99.90
63383;DHT22;49512;48.744;9.176;2023-04-25T05:36:17;15.70;98.00
63383;DHT22;49512;48.744;9.176;2023-04-25T05:38:43;15.70;94.00
63383;DHT22;49512;48.744;9.176;2023-04-25T05:41:08;15.60;91.50
63383;DHT22;49512;48.744;9.176;2023-04-25T05:43:34;15.60;95.70
63383;DHT22;49512;48.744;9.176;2023-04-25T05:46:00;15.60;96.10
63383;DHT22;49512;48.744;9.176;2023-04-25T05:48:25;15.60;96.60
63383;DHT22;49512;48.744;9.176;2023-04-25T05:50:51;15.60;96.90
63383;DHT22;49512;48.744;9.176;2023-04-25T05:53:17;15.70;97.20
63383;DHT22;49512;48.744;9.176;2023-04-25T05:55:42;15.60;97.30
63383;DHT22;49512;48.744;9.176;2023-04-25T05:58:08;15.60;97.40
63383;DHT22;49512;48.744;9.176;2023-04-25T06:00:33;15.60;97.60
63383;DHT22;49512;48.744;9.176;2023-04-25T06:02:59;15.70;97.80
63383;DHT22;49512;48.744;9.176;2023-04-25T06:05:25;15.60;97.80
63383;DHT22;49512;48.744;9.176;2023-04-25T06:07:50;15.60;97.90
63383;DHT22;49512;48.744;9.176;2023-04-25T06:10:16;15.60;98.00
63383;DHT22;49512;48.744;9.176;2023-04-25T06:12:41;15.60;98.10
63383;DHT22;49512;48.744;9.176;2023-04-25T06:15:07;15.60;98.20
63383;DHT22;49512;48.744;9.176;2023-04-25T06:17:33;15.60;98.40
63383;DHT22;49512;48.744;9.176;2023-04-25T06:19:58;15.60;98.40
63383;DHT22;49512;48.744;9.176;2023-04-25T06:22:24;15.60;98.50
63383;DHT22;49512;48.744;9.176;2023-04-25T06:24:49;15.60;98.60
63383;DHT22;49512;48.744;9.176;2023-04-25T06:27:15;15.60;98.60
63383;DHT22;49512;48.744;9.176;2023-04-25T06:29:40;15.60;98.90
63383;DHT22;49512;48.744;9.176;2023-04-25T06:32:06;15.60;98.90
63383;DHT22;49512;48.744;9.176;2023-04-25T06:34:31;15.60;99.00
63383;DHT22;49512;48.744;9.176;2023-04-25T06:36:57;15.60;99.10
63383;DHT22;49512;48.744;9.176;2023-04-25T06:39:22;15.60;99.20
63383;DHT22;49512;48.744;9.176;2023-04-25T06:41:49;15.60;99.30
63383;DHT22;49512;48.744;9.176;2023-04-25T06:44:15;15.60;99.50
63383;DHT22;49512;48.744;9.176;2023-04-25T06:46:40;15.60;99.50
63383;DHT22;49512;48.744;9.176;2023-04-25T06:49:06;15.60;99.60
63383;DHT22;49512;48.744;9.176;2023-04-25T06:51:31;15.60;99.60
63383;DHT22;49512;48.744;9.176;2023-04-25T06:53:57;15.60;99.70
63383;DHT22;49512;48.744;9.176;2023-04-25T06:56:23;15.60;99.70
63383;DHT22;49512;48.744;9.176;2023-04-25T06:58:49;15.60;99.60
63383;DHT22;49512;48.744;9.176;2023-04-25T07:01:14;15.60;99.70
63383;DHT22;49512;48.744;9.176;2023-04-25T07:03:40;15.60;99.70
63383;DHT22;49512;48.744;9.176;2023-04-25T07:06:05;15.60;99.70
63383;DHT22;49512;48.744;9.176;2023-04-25T07:08:34;15.60;99.80
63383;DHT22;49512;48.744;9.176;2023-04-25T07:10:59;15.60;99.80
63383;DHT22;49512;48.744;9.176;2023-04-25T07:13:25;15.60;99.80
63383;DHT22;49512;48.744;9.176;2023-04-25T07:15:50;15.60;99.80
63383;DHT22;49512;48.744;9.176;2023-04-25T07:18:16;15.60;99.80
63383;DHT22;49512;48.744;9.176;2023-04-25T07:20:41;15.60;99.80
63383;DHT22;49512;48.744;9.176;2023-04-25T07:23:07;15.60;99.80
63383;DHT22;49512;48.744;9.176;2023-04-25T07:25:32;15.60;99.80
63383;DHT22;49512;48.744;9.176;2023-04-25T07:27:58;15.60;99.90
63383;DHT22;49512;48.744;9.176;2023-04-25T07:30:23;15.60;99.90
63383;DHT22;49512;48.744;9.176;2023-04-25T07:32:49;15.60;99.90
63383;DHT22;49512;48.744;9.176;2023-04-25T07:35:15;15.60;99.90
63383;DHT22;49512;48.744;9.176;2023-04-25T07:37:41;15.50;99.90
63383;DHT22;49512;48.744;9.176;2023-04-25T07:40:06;15.50;99.90
63383;DHT22;49512;48.744;9.176;2023-04-25T07:42:34;15.60;99.90
63383;DHT22;49512;48.744;9.176;2023-04-25T07:45:00;15.60;99.90
63383;DHT22;49512;48.744;9.176;2023-04-25T07:47:25;15.50;99.90
63383;DHT22;49512;48.744;9.176;2023-04-25T07:49:51;15.60;99.90
63383;DHT22;49512;48.744;9.176;2023-04-25T07:52:16;15.50;99.90
63383;DHT22;49512;48.744;9.176;2023-04-25T07:54:42;15.60;99.90
63383;DHT22;49512;48.744;9.176;2023-04-25T07:57:07;15.50;99.90
63383;DHT22;49512;48.744;9.176;2023-04-25T07:59:33;15.50;99.90
63383;DHT22;49512;48.744;9.176;2023-04-25T08:01:58;15.50;99.90
63383;DHT22;49512;48.744;9.176;2023-04-25T08:04:24;15.60;99.90
63383;DHT22;49512;48.744;9.176;2023-04-25T08:06:50;15.60;99.90
63383;DHT22;49512;48.744;9.176;2023-04-25T08:09:16;15.50;99.90
63383;DHT22;49512;48.744;9.176;2023-04-25T08:11:41;15.60;99.90
63383;DHT22;49512;48.744;9.176;2023-04-25T08:14:08;15.60;99.90
63383;DHT22;49512;48.744;9.176;2023-04-25T08:16:33;15.60;99.90
63383;DHT22;49512;48.744;9.176;2023-04-25T08:18:59;15.50;99.90
63383;DHT22;49512;48.744;9.176;2023-04-25T08:21:24;15.50;99.90
63383;DHT22;49512;48.744;9.176;2023-04-25T08:23:52;15.60;99.90
63383;DHT22;49512;48.744;9.176;2023-04-25T08:26:17;15.50;99.90
63383;DHT22;49512;48.744;9.176;2023-04-25T08:28:43;15.50;99.90
63383;DHT22;49512;48.744;9.176;2023-04-25T08:31:08;16.80;99.90
63383;DHT22;49512;48.744;9.176;2023-04-25T08:33:34;15.60;99.90
63383;DHT22;49512;48.744;9.176;2023-04-25T08:35:59;15.50;99.90
63383;DHT22;49512;48.744;9.176;2023-04-25T08:38:25;15.50;99.90
63383;DHT22;49512;48.744;9.176;2023-04-25T08:40:51;15.50;99.90
63383;DHT22;49512;48.744;9.176;2023-04-25T08:43:17;15.60;99.90
63383;DHT22;49512;48.744;9.176;2023-04-25T08:45:44;15.50;99.90
63383;DHT22;49512;48.744;9.176;2023-04-25T08:48:13;15.50;99.90
63383;DHT22;49512;48.744;9.176;2023-04-25T08:50:39;15.50;99.90
63383;DHT22;49512;48.744;9.176;2023-04-25T08:53:06;15.60;99.90
63383;DHT22;49512;48.744;9.176;2023-04-25T08:55:33;15.60;99.90
63383;DHT22;49512;48.744;9.176;2023-04-25T08:57:59;15.50;99.90
63383;DHT22;49512;48.744;9.176;2023-04-25T09:00:25;15.50;99.90
63383;DHT22;49512;48.744;9.176;2023-04-25T09:02:51;15.50;99.90
63383;DHT22;49512;48.744;9.176;2023-04-25T09:05:17;15.60;99.90
63383;DHT22;49512;48.744;9.176;2023-04-25T09:07:43;15.50;99.90
63383;DHT22;49512;48.744;9.176;2023-04-25T09:10:09;15.60;99.90
63383;DHT22;49512;48.744;9.176;2023-04-25T09:12:34;15.50;99.90
63383;DHT22;49512;48.744;9.176;2023-04-25T09:15:10;15.60;99.90
63383;DHT22;49512;48.744;9.176;2023-04-25T09:17:36;15.60;99.90
63383;DHT22;49512;48.744;9.176;2023-04-25T09:20:06;15.60;99.90
63383;DHT22;49512;48.744;9.176;2023-04-25T09:22:32;15.60;99.90
63383;DHT22;49512;48.744;9.176;2023-04-25T09:24:58;15.60;99.90
63383;DHT22;49512;48.744;9.176;2023-04-25T09:27:27;15.60;99.90
63383;DHT22;49512;48.744;9.176;2023-04-25T09:29:59;15.60;99.90
63383;DHT22;49512;48.744;9.176;2023-04-25T09:32:25;15.60;99.90
63383;DHT22;49512;48.744;9.176;2023-04-25T09:34:52;15.60;99.90
63383;DHT22;49512;48.744;9.176;2023-04-25T09:37:18;15.50;99.90
63383;DHT22;49512;48.744;9.176;2023-04-25T09:39:45;15.60;99.90
63383;DHT22;49512;48.744;9.176;2023-04-25T09:42:12;15.50;99.90
63383;DHT22;49512;48.744;9.176;2023-04-25T09:44:37;15.60;99.90
63383;DHT22;49512;48.744;9.176;2023-04-25T09:47:09;15.60;99.90
63383;DHT22;49512;48.744;9.176;2023-04-25T09:49:34;15.50;99.90
63383;DHT22;49512;48.744;9.176;2023-04-25T09:52:03;15.50;99.90
63383;DHT22;49512;48.744;9.176;2023-04-25T09:54:29;15.60;99.90
63383;DHT22;49512;48.744;9.176;2023-04-25T09:56:54;15.50;99.90
63383;DHT22;49512;48.744;9.176;2023-04-25T09:59:21;15.50;99.90
63383;DHT22;49512;48.744;9.176;2023-04-25T10:01:49;15.60;99.90
63383;DHT22;49512;48.744;9.176;2023-04-25T10:04:23;15.60;99.90
63383;DHT22;49512;48.744;9.176;2023-04-25T10:06:49;15.50;99.90
63383;DHT22;49512;48.744;9.176;2023-04-25T10:09:18;15.50;99.90
63383;DHT22;49512;48.744;9.176;2023-04-25T10:11:45;15.50;99.90
63383;DHT22;49512;48.744;9.176;2023-04-25T10:14:13;15.60;99.90
63383;DHT22;49512;48.744;9.176;2023-04-25T10:16:39;15.50;99.90
63383;DHT22;49512;48.744;9.176;2023-04-25T10:19:05;15.60;99.90
63383;DHT22;49512;48.744;9.176;2023-04-25T10:21:31;15.50;99.90
63383;DHT22;49512;48.744;9.176;2023-04-25T10:23:57;15.60;99.90
63383;DHT22;49512;48.744;9.176;2023-04-25T10:26:23;15.50;99.90
63383;DHT22;49512;48.744;9.176;2023-04-25T10:28:56;15.50;99.90
63383;DHT22;49512;48.744;9.176;2023-04-25T10:31:26;15.50;99.90
63383;DHT22;49512;48.744;9.176;2023-04-25T10:33:52;15.60;99.90
63383;DHT22;49512;48.744;9.176;2023-04-25T10:36:19;15.50;99.90
63383;DHT22;49512;48.744;9.176;2023-04-25T10:38:47;15.50;99.90
63383;DHT22;49512;48.744;9.176;2023-04-25T10:41:13;15.50;99.90
63383;DHT22;49512;48.744;9.176;2023-04-25T10:43:42;15.60;99.90
63383;DHT22;49512;48.744;9.176;2023-04-25T10:46:25;15.50;99.90
63383;DHT22;49512;48.744;9.176;2023-04-25T10:48:51;15.60;99.90
63383;DHT22;49512;48.744;9.176;2023-04-25T10:53:46;15.60;99.90
63383;DHT22;49512;48.744;9.176;2023-04-25T10:56:19;15.60;99.90
63383;DHT22;49512;48.744;9.176;2023-04-25T10:58:44;15.60;99.90
63383;DHT22;49512;48.744;9.176;2023-04-25T11:01:11;15.50;99.90
63383;DHT22;49512;48.744;9.176;2023-04-25T11:03:41;15.60;99.90
63383;DHT22;49512;48.744;9.176;2023-04-25T11:06:09;15.50;99.90
63383;DHT22;49512;48.744;9.176;2023-04-25T11:08:43;15.60;99.90
63383;DHT22;49512;48.744;9.176;2023-04-25T11:11:12;15.50;99.90
63383;DHT22;49512;48.744;9.176;2023-04-25T11:13:38;15.50;99.90
63383;DHT22;49512;48.744;9.176;2023-04-25T11:16:07;15.50;99.90
63383;DHT22;49512;48.744;9.176;2023-04-25T11:18:33;15.50;99.90
63383;DHT22;49512;48.744;9.176;2023-04-25T11:20:59;15.50;99.90
63383;DHT22;49512;48.744;9.176;2023-04-25T11:23:25;15.60;99.90
63383;DHT22;49512;48.744;9.176;2023-04-25T11:25:52;15.60;99.90
63383;DHT22;49512;48.744;9.176;2023-04-25T11:28:21;15.50;99.90
63383;DHT22;49512;48.744;9.176;2023-04-25T11:30:50;15.50;99.90
63383;DHT22;49512;48.744;9.176;2023-04-25T11:33:16;15.50;99.90
63383;DHT22;49512;48.744;9.176;2023-04-25T11:35:42;15.50;99.90
63383;DHT22;49512;48.744;9.176;2023-04-25T11:38:07;15.50;99.90
63383;DHT22;49512;48.744;9.176;2023-04-25T11:40:34;15.50;99.90
63383;DHT22;49512;48.744;9.176;2023-04-25T11:43:00;15.50;99.90
63383;DHT22;49512;48.744;9.176;2023-04-25T11:45:26;14.70;99.90
63383;DHT22;49512;48.744;9.176;2023-04-25T11:47:52;15.50;99.90
63383;DHT22;49512;48.744;9.176;2023-04-25T11:50:17;15.50;99.90
63383;DHT22;49512;48.744;9.176;2023-04-25T11:52:44;15.50;99.90
63383;DHT22;49512;48.744;9.176;2023-04-25T11:55:13;15.50;99.90
63383;DHT22;49512;48.744;9.176;2023-04-25T11:57:38;15.50;99.90
63383;DHT22;49512;48.744;9.176;2023-04-25T12:00:38;15.50;99.90
63383;DHT22;49512;48.744;9.176;2023-04-25T12:02:56;15.50;99.90
63383;DHT22;49512;48.744;9.176;2023-04-25T12:05:28;15.50;99.90
63383;DHT22;49512;48.744;9.176;2023-04-25T12:07:54;15.50;99.90
63383;DHT22;49512;48.744;9.176;2023-04-25T12:10:20;15.50;99.90
63383;DHT22;49512;48.744;9.176;2023-04-25T12:12:46;15.50;99.90
63383;DHT22;49512;48.744;9.176;2023-04-25T12:15:16;15.50;99.90
63383;DHT22;49512;48.744;9.176;2023-04-25T12:17:52;15.50;99.90
63383;DHT22;49512;48.744;9.176;2023-04-25T12:20:18;15.50;99.90
63383;DHT22;49512;48.744;9.176;2023-04-25T12:22:46;15.50;99.90
63383;DHT22;49512;48.744;9.176;2023-04-25T12:25:12;15.40;99.90
63383;DHT22;49512;48.744;9.176;2023-04-25T12:27:40;15.40;99.90
63383;DHT22;49512;48.744;9.176;2023-04-25T12:30:09;15.50;99.90
63383;DHT22;49512;48.744;9.176;2023-04-25T12:32:36;15.40;99.90
63383;DHT22;49512;48.744;9.176;2023-04-25T12:35:01;15.50;99.90
63383;DHT22;49512;48.744;9.176;2023-04-25T12:37:28;15.40;99.90
63383;DHT22;49512;48.744;9.176;2023-04-25T12:39:53;15.50;99.90
63383;DHT22;49512;48.744;9.176;2023-04-25T12:42:19;15.50;99.90
63383;DHT22;49512;48.744;9.176;2023-04-25T12:44:45;15.50;99.90
63383;DHT22;49512;48.744;9.176;2023-04-25T12:47:11;15.50;99.90
63383;DHT22;49512;48.744;9.176;2023-04-25T12:49:37;15.40;99.90
63383;DHT22;49512;48.744;9.176;2023-04-25T12:52:02;15.50;99.90
63383;DHT22;49512;48.744;9.176;2023-04-25T12:54:28;15.50;99.90
63383;DHT22;49512;48.744;9.176;2023-04-25T12:56:53;15.50;99.90
63383;DHT22;49512;48.744;9.176;2023-04-25T12:59:20;15.50;99.90
63383;DHT22;49512;48.744;9.176;2023-04-25T13:01:46;15.50;99.90
63383;DHT22;49512;48.744;9.176;2023-04-25T13:04:12;15.50;99.90
63383;DHT22;49512;48.744;9.176;2023-04-25T13:06:37;15.50;99.90
63383;DHT22;49512;48.744;9.176;2023-04-25T13:09:03;15.50;99.90
63383;DHT22;49512;48.744;9.176;2023-04-25T13:11:28;15.40;99.90
63383;DHT22;49512;48.744;9.176;2023-04-25T13:13:55;15.50;99.90
63383;DHT22;49512;48.744;9.176;2023-04-25T13:16:23;15.50;99.90
63383;DHT22;49512;48.744;9.176;2023-04-25T13:21:14;15.50;99.90
63383;DHT22;49512;48.744;9.176;2023-04-25T13:23:43;15.50;99.90
63383;DHT22;49512;48.744;9.176;2023-04-25T13:26:11;15.50;99.90
63383;DHT22;49512;48.744;9.176;2023-04-25T13:28:37;15.50;99.90
63383;DHT22;49512;48.744;9.176;2023-04-25T13:31:02;15.50;99.90
63383;DHT22;49512;48.744;9.176;2023-04-25T13:33:28;15.50;99.90
63383;DHT22;49512;48.744;9.176;2023-04-25T13:35:53;15.50;99.90
63383;DHT22;49512;48.744;9.176;2023-04-25T13:38:21;15.50;99.90
63383;DHT22;49512;48.744;9.176;2023-04-25T13:40:47;15.50;99.90
63383;DHT22;49512;48.744;9.176;2023-04-25T13:43:12;15.50;99.90
63383;DHT22;49512;48.744;9.176;2023-04-25T13:45:38;15.50;99.90
63383;DHT22;49512;48.744;9.176;2023-04-25T13:48:04;15.50;99.90
63383;DHT22;49512;48.744;9.176;2023-04-25T13:50:30;15.50;99.90
63383;DHT22;49512;48.744;9.176;2023-04-25T13:52:55;15.50;99.90
63383;DHT22;49512;48.744;9.176;2023-04-25T13:55:20;15.50;99.90
63383;DHT22;49512;48.744;9.176;2023-04-25T13:57:46;15.50;99.90
63383;DHT22;49512;48.744;9.176;2023-04-25T14:00:12;15.40;99.90
63383;DHT22;49512;48.744;9.176;2023-04-25T14:02:38;15.50;99.90
63383;DHT22;49512;48.744;9.176;2023-04-25T14:05:04;15.50;99.90
63383;DHT22;49512;48.744;9.176;2023-04-25T14:07:29;15.50;99.90
63383;DHT22;49512;48.744;9.176;2023-04-25T14:09:55;15.50;99.90
63383;DHT22;49512;48.744;9.176;2023-04-25T14:12:22;15.50;99.90
63383;DHT22;49512;48.744;9.176;2023-04-25T14:14:48;15.50;99.90
63383;DHT22;49512;48.744;9.176;2023-04-25T14:17:13;15.50;99.90
63383;DHT22;49512;48.744;9.176;2023-04-25T14:19:39;15.50;99.90
63383;DHT22;49512;48.744;9.176;2023-04-25T14:22:08;15.50;99.90
63383;DHT22;49512;48.744;9.176;2023-04-25T14:24:34;15.50;99.90
63383;DHT22;49512;48.744;9.176;2023-04-25T14:27:00;15.50;99.90
63383;DHT22;49512;48.744;9.176;2023-04-25T14:29:26;15.50;99.90
63383;DHT22;49512;48.744;9.176;2023-04-25T14:31:51;15.50;99.90
63383;DHT22;49512;48.744;9.176;2023-04-25T14:34:17;15.50;99.90
63383;DHT22;49512;48.744;9.176;2023-04-25T14:36:43;15.50;99.90
63383;DHT22;49512;48.744;9.176;2023-04-25T14:39:08;15.50;99.90
63383;DHT22;49512;48.744;9.176;2023-04-25T14:41:35;15.50;99.90
63383;DHT22;49512;48.744;9.176;2023-04-25T14:46:26;15.50;99.90
63383;DHT22;49512;48.744;9.176;2023-04-25T14:48:52;15.50;99.90
63383;DHT22;49512;48.744;9.176;2023-04-25T14:51:18;15.50;99.90
63383;DHT22;49512;48.744;9.176;2023-04-25T14:53:43;15.50;99.90
63383;DHT22;49512;48.744;9.176;2023-04-25T14:56:09;15.50;99.90
63383;DHT22;49512;48.744;9.176;2023-04-25T14:58:34;15.40;99.90
63383;DHT22;49512;48.744;9.176;2023-04-25T15:01:02;15.50;99.90
63383;DHT22;49512;48.744;9.176;2023-04-25T15:03:27;15.50;99.90
63383;DHT22;49512;48.744;9.176;2023-04-25T15:05:54;15.50;99.90
63383;DHT22;49512;48.744;9.176;2023-04-25T15:08:20;15.40;99.90
63383;DHT22;49512;48.744;9.176;2023-04-25T15:10:46;15.50;99.90
63383;DHT22;49512;48.744;9.176;2023-04-25T15:13:11;15.50;99.90
63383;DHT22;49512;48.744;9.176;2023-04-25T15:15:37;15.50;99.90
63383;DHT22;49512;48.744;9.176;2023-04-25T15:18:03;15.50;99.90
63383;DHT22;49512;48.744;9.176;2023-04-25T15:20:31;15.50;99.90
63383;DHT22;49512;48.744;9.176;2023-04-25T15:22:57;15.50;99.90
63383;DHT22;49512;48.744;9.176;2023-04-25T15:25:22;15.50;99.90
63383;DHT22;49512;48.744;9.176;2023-04-25T15:27:48;15.40;99.90
63383;DHT22;49512;48.744;9.176;2023-04-25T15:30:15;15.50;99.90
63383;DHT22;49512;48.744;9.176;2023-04-25T15:32:41;15.40;99.90
63383;DHT22;49512;48.744;9.176;2023-04-25T15:35:06;15.50;99.90